sensor_id;sensor_type;location;lat;lon;timestamp;P1;durP1;ratioP1;P2;durP2;ratioP2
30818;SDS011;17546;42.674;23.284;2023-03-22T00:01:21;6.32;;;3.78;;
30818;SDS011;17546;42.674;23.284;2023-03-22T00:03:48;4.40;;;3.17;;
30818;SDS011;17546;42.674;23.284;2023-03-22T00:06:14;6.78;;;3.90;;
30818;SDS011;17546;42.674;23.284;2023-03-22T00:08:43;5.65;;;3.83;;
30818;SDS011;17546;42.674;23.284;2023-03-22T00:11:09;7.10;;;4.10;;
30818;SDS011;17546;42.674;23.284;2023-03-22T00:13:38;7.47;;;4.05;;
30818;SDS011;17546;42.674;23.284;2023-03-22T00:16:07;7.45;;;4.22;;
30818;SDS011;17546;42.674;23.284;2023-03-22T00:18:33;8.43;;;4.53;;
30818;SDS011;17546;42.674;23.284;2023-03-22T00:20:59;9.65;;;3.90;;
30818;SDS011;17546;42.674;23.284;2023-03-22T00:23:24;7.80;;;4.40;;
30818;SDS011;17546;42.674;23.284;2023-03-22T00:25:50;6.32;;;3.70;;
30818;SDS011;17546;42.674;23.284;2023-03-22T00:28:16;5.22;;;3.38;;
30818;SDS011;17546;42.674;23.284;2023-03-22T00:30:49;4.72;;;3.72;;
30818;SDS011;17546;42.674;23.284;2023-03-22T00:33:15;6.15;;;3.90;;
30818;SDS011;17546;42.674;23.284;2023-03-22T00:35:46;6.93;;;3.75;;
30818;SDS011;17546;42.674;23.284;2023-03-22T00:38:13;5.93;;;4.00;;
30818;SDS011;17546;42.674;23.284;2023-03-22T00:40:39;5.93;;;4.55;;
30818;SDS011;17546;42.674;23.284;2023-03-22T00:43:05;6.32;;;4.50;;
30818;SDS011;17546;42.674;23.284;2023-03-22T00:45:30;8.77;;;4.63;;
30818;SDS011;17546;42.674;23.284;2023-03-22T00:47:55;8.70;;;4.95;;
30818;SDS011;17546;42.674;23.284;2023-03-22T00:50:21;12.88;;;6.35;;
30818;SDS011;17546;42.674;23.284;2023-03-22T00:52:46;18.98;;;7.18;;
30818;SDS011;17546;42.674;23.284;2023-03-22T00:55:12;17.02;;;8.25;;
30818;SDS011;17546;42.674;23.284;2023-03-22T00:57:37;16.10;;;8.27;;
30818;SDS011;17546;42.674;23.284;2023-03-22T01:00:03;15.85;;;8.90;;
30818;SDS011;17546;42.674;23.284;2023-03-22T01:02:41;15.10;;;8.05;;
30818;SDS011;17546;42.674;23.284;2023-03-22T01:05:08;15.63;;;8.80;;
30818;SDS011;17546;42.674;23.284;2023-03-22T01:07:40;14.70;;;8.70;;
30818;SDS011;17546;42.674;23.284;2023-03-22T01:10:09;14.45;;;8.13;;
30818;SDS011;17546;42.674;23.284;2023-03-22T01:12:35;14.30;;;8.60;;
30818;SDS011;17546;42.674;23.284;2023-03-22T01:15:01;13.23;;;7.57;;
30818;SDS011;17546;42.674;23.284;2023-03-22T01:17:28;10.85;;;6.88;;
30818;SDS011;17546;42.674;23.284;2023-03-22T01:19:53;16.60;;;8.35;;
30818;SDS011;17546;42.674;23.284;2023-03-22T01:22:19;11.32;;;7.38;;
30818;SDS011;17546;42.674;23.284;2023-03-22T01:24:44;9.90;;;7.40;;
30818;SDS011;17546;42.674;23.284;2023-03-22T01:27:09;11.60;;;7.20;;
30818;SDS011;17546;42.674;23.284;2023-03-22T01:29:35;11.50;;;7.82;;
30818;SDS011;17546;42.674;23.284;2023-03-22T01:32:01;9.20;;;6.82;;
30818;SDS011;17546;42.674;23.284;2023-03-22T01:34:28;14.60;;;8.23;;
30818;SDS011;17546;42.674;23.284;2023-03-22T01:36:53;10.85;;;8.10;;
30818;SDS011;17546;42.674;23.284;2023-03-22T01:39:19;13.75;;;8.23;;
30818;SDS011;17546;42.674;23.284;2023-03-22T01:41:45;13.30;;;8.57;;
30818;SDS011;17546;42.674;23.284;2023-03-22T01:46:47;14.20;;;8.70;;
30818;SDS011;17546;42.674;23.284;2023-03-22T01:49:16;14.07;;;8.90;;
30818;SDS011;17546;42.674;23.284;2023-03-22T01:51:47;13.57;;;9.55;;
30818;SDS011;17546;42.674;23.284;2023-03-22T01:54:37;13.10;;;8.60;;
30818;SDS011;17546;42.674;23.284;2023-03-22T01:57:04;17.42;;;10.65;;
30818;SDS011;17546;42.674;23.284;2023-03-22T01:59:30;14.73;;;9.63;;
30818;SDS011;17546;42.674;23.284;2023-03-22T02:01:57;14.98;;;9.50;;
30818;SDS011;17546;42.674;23.284;2023-03-22T02:04:26;12.88;;;9.50;;
30818;SDS011;17546;42.674;23.284;2023-03-22T02:06:58;13.13;;;8.98;;
30818;SDS011;17546;42.674;23.284;2023-03-22T02:09:26;12.20;;;8.55;;
30818;SDS011;17546;42.674;23.284;2023-03-22T02:17:33;10.68;;;6.82;;
30818;SDS011;17546;42.674;23.284;2023-03-22T02:20:22;9.27;;;6.47;;
30818;SDS011;17546;42.674;23.284;2023-03-22T02:31:44;10.95;;;5.70;;
30818;SDS011;17546;42.674;23.284;2023-03-22T02:42:48;10.13;;;6.45;;
30818;SDS011;17546;42.674;23.284;2023-03-22T02:45:42;8.57;;;5.97;;
30818;SDS011;17546;42.674;23.284;2023-03-22T02:48:31;9.00;;;6.10;;
30818;SDS011;17546;42.674;23.284;2023-03-22T02:51:09;11.15;;;4.90;;
30818;SDS011;17546;42.674;23.284;2023-03-22T02:53:47;7.13;;;5.18;;
30818;SDS011;17546;42.674;23.284;2023-03-22T02:59:10;9.50;;;4.90;;
30818;SDS011;17546;42.674;23.284;2023-03-22T03:01:42;5.88;;;4.75;;
30818;SDS011;17546;42.674;23.284;2023-03-22T03:04:17;7.70;;;4.60;;
30818;SDS011;17546;42.674;23.284;2023-03-22T03:06:46;6.78;;;4.63;;
30818;SDS011;17546;42.674;23.284;2023-03-22T03:09:16;6.55;;;4.80;;
30818;SDS011;17546;42.674;23.284;2023-03-22T03:11:45;6.63;;;4.80;;
30818;SDS011;17546;42.674;23.284;2023-03-22T03:14:22;6.05;;;4.57;;
30818;SDS011;17546;42.674;23.284;2023-03-22T03:25:54;7.65;;;4.43;;
30818;SDS011;17546;42.674;23.284;2023-03-22T03:30:46;7.70;;;4.40;;
30818;SDS011;17546;42.674;23.284;2023-03-22T03:33:33;9.75;;;5.00;;
30818;SDS011;17546;42.674;23.284;2023-03-22T03:36:05;6.63;;;4.50;;
30818;SDS011;17546;42.674;23.284;2023-03-22T03:38:35;6.93;;;4.82;;
30818;SDS011;17546;42.674;23.284;2023-03-22T03:41:05;7.38;;;4.18;;
30818;SDS011;17546;42.674;23.284;2023-03-22T03:43:36;6.75;;;4.47;;
30818;SDS011;17546;42.674;23.284;2023-03-22T03:46:04;5.90;;;4.00;;
30818;SDS011;17546;42.674;23.284;2023-03-22T03:48:31;7.93;;;4.50;;
30818;SDS011;17546;42.674;23.284;2023-03-22T03:50:59;7.03;;;4.20;;
30818;SDS011;17546;42.674;23.284;2023-03-22T03:53:26;5.60;;;4.30;;
30818;SDS011;17546;42.674;23.284;2023-03-22T03:55:54;5.03;;;3.75;;
30818;SDS011;17546;42.674;23.284;2023-03-22T03:58:20;5.55;;;3.10;;
30818;SDS011;17546;42.674;23.284;2023-03-22T04:00:46;5.07;;;3.30;;
30818;SDS011;17546;42.674;23.284;2023-03-22T04:03:12;5.18;;;3.65;;
30818;SDS011;17546;42.674;23.284;2023-03-22T04:05:38;5.55;;;3.60;;
30818;SDS011;17546;42.674;23.284;2023-03-22T04:08:03;5.32;;;3.63;;
30818;SDS011;17546;42.674;23.284;2023-03-22T04:10:29;6.00;;;4.00;;
30818;SDS011;17546;42.674;23.284;2023-03-22T04:12:55;7.38;;;4.10;;
30818;SDS011;17546;42.674;23.284;2023-03-22T04:15:20;6.82;;;3.70;;
30818;SDS011;17546;42.674;23.284;2023-03-22T04:17:45;6.28;;;4.20;;
30818;SDS011;17546;42.674;23.284;2023-03-22T04:20:11;5.65;;;3.40;;
30818;SDS011;17546;42.674;23.284;2023-03-22T04:22:38;5.68;;;3.60;;
30818;SDS011;17546;42.674;23.284;2023-03-22T04:25:09;6.93;;;4.00;;
30818;SDS011;17546;42.674;23.284;2023-03-22T04:27:37;5.97;;;3.90;;
30818;SDS011;17546;42.674;23.284;2023-03-22T04:30:05;5.90;;;4.20;;
30818;SDS011;17546;42.674;23.284;2023-03-22T04:32:34;6.05;;;3.22;;
30818;SDS011;17546;42.674;23.284;2023-03-22T04:34:59;5.72;;;3.10;;
30818;SDS011;17546;42.674;23.284;2023-03-22T04:37:25;5.90;;;3.25;;
30818;SDS011;17546;42.674;23.284;2023-03-22T04:39:57;4.78;;;3.20;;
30818;SDS011;17546;42.674;23.284;2023-03-22T04:42:23;4.57;;;3.33;;
30818;SDS011;17546;42.674;23.284;2023-03-22T04:44:49;5.20;;;3.80;;
30818;SDS011;17546;42.674;23.284;2023-03-22T04:47:14;4.35;;;3.35;;
30818;SDS011;17546;42.674;23.284;2023-03-22T04:49:40;4.78;;;3.58;;
30818;SDS011;17546;42.674;23.284;2023-03-22T04:52:06;5.40;;;3.67;;
30818;SDS011;17546;42.674;23.284;2023-03-22T04:54:31;5.60;;;3.33;;
30818;SDS011;17546;42.674;23.284;2023-03-22T04:56:57;4.75;;;3.60;;
30818;SDS011;17546;42.674;23.284;2023-03-22T04:59:22;7.10;;;4.60;;
30818;SDS011;17546;42.674;23.284;2023-03-22T05:01:48;7.85;;;4.72;;
30818;SDS011;17546;42.674;23.284;2023-03-22T05:04:15;5.85;;;4.20;;
30818;SDS011;17546;42.674;23.284;2023-03-22T05:06:41;6.10;;;4.18;;
30818;SDS011;17546;42.674;23.284;2023-03-22T05:09:07;6.93;;;4.25;;
30818;SDS011;17546;42.674;23.284;2023-03-22T05:11:33;7.78;;;4.40;;
30818;SDS011;17546;42.674;23.284;2023-03-22T05:14:00;6.90;;;4.38;;
30818;SDS011;17546;42.674;23.284;2023-03-22T05:16:26;5.70;;;4.00;;
30818;SDS011;17546;42.674;23.284;2023-03-22T05:18:52;5.68;;;4.20;;
30818;SDS011;17546;42.674;23.284;2023-03-22T05:21:19;6.72;;;4.15;;
30818;SDS011;17546;42.674;23.284;2023-03-22T05:23:46;5.93;;;4.20;;
30818;SDS011;17546;42.674;23.284;2023-03-22T05:26:13;5.03;;;3.83;;
30818;SDS011;17546;42.674;23.284;2023-03-22T05:28:40;4.63;;;3.22;;
30818;SDS011;17546;42.674;23.284;2023-03-22T05:31:06;5.00;;;3.67;;
30818;SDS011;17546;42.674;23.284;2023-03-22T05:33:32;6.47;;;4.20;;
30818;SDS011;17546;42.674;23.284;2023-03-22T05:35:59;5.80;;;3.90;;
30818;SDS011;17546;42.674;23.284;2023-03-22T05:38:25;4.75;;;3.72;;
30818;SDS011;17546;42.674;23.284;2023-03-22T05:40:51;6.30;;;4.10;;
30818;SDS011;17546;42.674;23.284;2023-03-22T05:43:16;6.55;;;4.20;;
30818;SDS011;17546;42.674;23.284;2023-03-22T05:45:42;8.85;;;4.97;;
30818;SDS011;17546;42.674;23.284;2023-03-22T05:48:09;8.10;;;4.80;;
30818;SDS011;17546;42.674;23.284;2023-03-22T05:50:35;7.00;;;4.97;;
30818;SDS011;17546;42.674;23.284;2023-03-22T05:53:00;7.50;;;4.93;;
30818;SDS011;17546;42.674;23.284;2023-03-22T05:55:28;8.80;;;5.60;;
30818;SDS011;17546;42.674;23.284;2023-03-22T05:57:56;8.27;;;4.80;;
30818;SDS011;17546;42.674;23.284;2023-03-22T06:00:25;10.18;;;5.50;;
30818;SDS011;17546;42.674;23.284;2023-03-22T06:02:56;7.20;;;4.72;;
30818;SDS011;17546;42.674;23.284;2023-03-22T06:05:27;7.43;;;4.63;;
30818;SDS011;17546;42.674;23.284;2023-03-22T06:07:56;7.30;;;4.40;;
30818;SDS011;17546;42.674;23.284;2023-03-22T06:10:22;8.80;;;5.35;;
30818;SDS011;17546;42.674;23.284;2023-03-22T06:12:48;7.63;;;5.00;;
30818;SDS011;17546;42.674;23.284;2023-03-22T06:15:14;8.98;;;4.90;;
30818;SDS011;17546;42.674;23.284;2023-03-22T06:17:40;6.07;;;4.25;;
30818;SDS011;17546;42.674;23.284;2023-03-22T06:20:09;7.63;;;4.28;;
30818;SDS011;17546;42.674;23.284;2023-03-22T06:22:36;5.82;;;4.03;;
30818;SDS011;17546;42.674;23.284;2023-03-22T06:25:02;4.65;;;3.58;;
30818;SDS011;17546;42.674;23.284;2023-03-22T06:27:28;6.70;;;4.22;;
30818;SDS011;17546;42.674;23.284;2023-03-22T06:29:53;7.57;;;3.88;;
30818;SDS011;17546;42.674;23.284;2023-03-22T06:32:19;6.25;;;4.30;;
30818;SDS011;17546;42.674;23.284;2023-03-22T06:34:48;6.07;;;4.07;;
30818;SDS011;17546;42.674;23.284;2023-03-22T06:37:14;5.57;;;4.25;;
30818;SDS011;17546;42.674;23.284;2023-03-22T06:39:40;7.63;;;4.70;;
30818;SDS011;17546;42.674;23.284;2023-03-22T06:42:06;12.05;;;6.15;;
30818;SDS011;17546;42.674;23.284;2023-03-22T06:44:31;7.95;;;5.15;;
30818;SDS011;17546;42.674;23.284;2023-03-22T06:46:57;8.38;;;5.68;;
30818;SDS011;17546;42.674;23.284;2023-03-22T06:49:22;7.47;;;5.35;;
30818;SDS011;17546;42.674;23.284;2023-03-22T06:51:48;9.18;;;5.38;;
30818;SDS011;17546;42.674;23.284;2023-03-22T06:54:13;7.75;;;5.35;;
30818;SDS011;17546;42.674;23.284;2023-03-22T06:56:40;8.38;;;5.10;;
30818;SDS011;17546;42.674;23.284;2023-03-22T06:59:06;14.13;;;8.68;;
30818;SDS011;17546;42.674;23.284;2023-03-22T07:01:31;9.27;;;5.95;;
30818;SDS011;17546;42.674;23.284;2023-03-22T07:03:57;10.20;;;6.38;;
30818;SDS011;17546;42.674;23.284;2023-03-22T07:06:22;7.57;;;5.28;;
30818;SDS011;17546;42.674;23.284;2023-03-22T07:08:48;7.82;;;5.38;;
30818;SDS011;17546;42.674;23.284;2023-03-22T07:11:13;8.13;;;5.38;;
30818;SDS011;17546;42.674;23.284;2023-03-22T07:13:39;8.90;;;5.28;;
30818;SDS011;17546;42.674;23.284;2023-03-22T07:16:04;13.88;;;4.95;;
30818;SDS011;17546;42.674;23.284;2023-03-22T07:18:30;6.32;;;4.55;;
30818;SDS011;17546;42.674;23.284;2023-03-22T07:20:56;6.65;;;4.63;;
30818;SDS011;17546;42.674;23.284;2023-03-22T07:23:21;7.60;;;4.03;;
30818;SDS011;17546;42.674;23.284;2023-03-22T07:25:47;7.78;;;5.05;;
30818;SDS011;17546;42.674;23.284;2023-03-22T07:28:13;6.07;;;4.40;;
30818;SDS011;17546;42.674;23.284;2023-03-22T07:30:39;8.38;;;4.55;;
30818;SDS011;17546;42.674;23.284;2023-03-22T07:33:05;7.80;;;4.25;;
30818;SDS011;17546;42.674;23.284;2023-03-22T07:35:32;8.45;;;5.18;;
30818;SDS011;17546;42.674;23.284;2023-03-22T07:37:58;7.63;;;4.57;;
30818;SDS011;17546;42.674;23.284;2023-03-22T07:40:25;11.63;;;4.57;;
30818;SDS011;17546;42.674;23.284;2023-03-22T07:42:51;8.38;;;4.50;;
30818;SDS011;17546;42.674;23.284;2023-03-22T07:45:17;9.88;;;5.25;;
30818;SDS011;17546;42.674;23.284;2023-03-22T07:47:43;9.18;;;5.63;;
30818;SDS011;17546;42.674;23.284;2023-03-22T07:50:09;8.05;;;4.85;;
30818;SDS011;17546;42.674;23.284;2023-03-22T07:52:38;7.47;;;5.10;;
30818;SDS011;17546;42.674;23.284;2023-03-22T07:55:05;7.10;;;4.47;;
30818;SDS011;17546;42.674;23.284;2023-03-22T07:57:32;6.55;;;4.25;;
30818;SDS011;17546;42.674;23.284;2023-03-22T07:59:57;6.05;;;4.28;;
30818;SDS011;17546;42.674;23.284;2023-03-22T08:02:23;6.82;;;4.28;;
30818;SDS011;17546;42.674;23.284;2023-03-22T08:04:48;7.80;;;5.13;;
30818;SDS011;17546;42.674;23.284;2023-03-22T08:07:14;6.88;;;5.10;;
30818;SDS011;17546;42.674;23.284;2023-03-22T08:09:42;7.63;;;4.63;;
30818;SDS011;17546;42.674;23.284;2023-03-22T08:12:08;6.05;;;4.45;;
30818;SDS011;17546;42.674;23.284;2023-03-22T08:14:34;11.48;;;7.22;;
30818;SDS011;17546;42.674;23.284;2023-03-22T08:17:01;10.70;;;6.30;;
30818;SDS011;17546;42.674;23.284;2023-03-22T08:19:27;11.30;;;6.03;;
30818;SDS011;17546;42.674;23.284;2023-03-22T08:21:53;12.05;;;6.72;;
30818;SDS011;17546;42.674;23.284;2023-03-22T08:24:18;11.80;;;6.50;;
30818;SDS011;17546;42.674;23.284;2023-03-22T08:26:44;12.82;;;7.00;;
30818;SDS011;17546;42.674;23.284;2023-03-22T08:29:10;10.70;;;7.07;;
30818;SDS011;17546;42.674;23.284;2023-03-22T08:31:35;10.77;;;7.57;;
30818;SDS011;17546;42.674;23.284;2023-03-22T08:34:01;15.65;;;7.65;;
30818;SDS011;17546;42.674;23.284;2023-03-22T08:36:26;16.52;;;8.32;;
30818;SDS011;17546;42.674;23.284;2023-03-22T08:38:53;13.02;;;8.30;;
30818;SDS011;17546;42.674;23.284;2023-03-22T08:41:18;10.88;;;7.00;;
30818;SDS011;17546;42.674;23.284;2023-03-22T08:43:44;11.82;;;6.82;;
30818;SDS011;17546;42.674;23.284;2023-03-22T08:46:09;10.43;;;6.45;;
30818;SDS011;17546;42.674;23.284;2023-03-22T08:48:34;11.45;;;6.28;;
30818;SDS011;17546;42.674;23.284;2023-03-22T08:51:02;11.40;;;6.45;;
30818;SDS011;17546;42.674;23.284;2023-03-22T08:53:28;22.27;;;17.50;;
30818;SDS011;17546;42.674;23.284;2023-03-22T08:55:54;19.38;;;13.02;;
30818;SDS011;17546;42.674;23.284;2023-03-22T08:58:22;19.67;;;12.77;;
30818;SDS011;17546;42.674;23.284;2023-03-22T09:00:47;22.40;;;14.65;;
30818;SDS011;17546;42.674;23.284;2023-03-22T09:03:13;22.55;;;16.08;;
30818;SDS011;17546;42.674;23.284;2023-03-22T09:05:38;25.42;;;16.13;;
30818;SDS011;17546;42.674;23.284;2023-03-22T09:08:04;11.43;;;7.78;;
30818;SDS011;17546;42.674;23.284;2023-03-22T09:10:30;10.30;;;6.13;;
30818;SDS011;17546;42.674;23.284;2023-03-22T09:12:56;7.82;;;4.90;;
30818;SDS011;17546;42.674;23.284;2023-03-22T09:15:22;5.88;;;4.07;;
30818;SDS011;17546;42.674;23.284;2023-03-22T09:17:47;8.80;;;4.60;;
30818;SDS011;17546;42.674;23.284;2023-03-22T09:20:13;9.88;;;4.65;;
30818;SDS011;17546;42.674;23.284;2023-03-22T09:22:38;7.85;;;4.88;;
30818;SDS011;17546;42.674;23.284;2023-03-22T09:25:04;10.20;;;4.93;;
30818;SDS011;17546;42.674;23.284;2023-03-22T09:27:30;7.30;;;5.30;;
30818;SDS011;17546;42.674;23.284;2023-03-22T09:29:55;8.80;;;6.45;;
30818;SDS011;17546;42.674;23.284;2023-03-22T09:32:21;9.15;;;5.70;;
30818;SDS011;17546;42.674;23.284;2023-03-22T09:34:46;7.93;;;5.72;;
30818;SDS011;17546;42.674;23.284;2023-03-22T09:37:12;10.80;;;6.38;;
30818;SDS011;17546;42.674;23.284;2023-03-22T09:39:39;11.02;;;5.88;;
30818;SDS011;17546;42.674;23.284;2023-03-22T09:42:06;12.85;;;6.30;;
30818;SDS011;17546;42.674;23.284;2023-03-22T09:44:48;7.70;;;5.32;;
30818;SDS011;17546;42.674;23.284;2023-03-22T09:47:17;9.60;;;5.30;;
30818;SDS011;17546;42.674;23.284;2023-03-22T09:49:47;8.15;;;5.07;;
30818;SDS011;17546;42.674;23.284;2023-03-22T09:52:19;8.27;;;5.30;;
30818;SDS011;17546;42.674;23.284;2023-03-22T09:54:45;9.70;;;5.00;;
30818;SDS011;17546;42.674;23.284;2023-03-22T10:02:48;6.95;;;4.20;;
30818;SDS011;17546;42.674;23.284;2023-03-22T10:08:15;6.35;;;4.32;;
30818;SDS011;17546;42.674;23.284;2023-03-22T10:10:48;5.20;;;3.70;;
30818;SDS011;17546;42.674;23.284;2023-03-22T10:16:06;8.57;;;4.50;;
30818;SDS011;17546;42.674;23.284;2023-03-22T10:18:42;8.00;;;3.85;;
30818;SDS011;17546;42.674;23.284;2023-03-22T10:21:12;5.78;;;3.80;;
30818;SDS011;17546;42.674;23.284;2023-03-22T10:23:45;7.10;;;4.15;;
30818;SDS011;17546;42.674;23.284;2023-03-22T10:31:54;5.25;;;3.90;;
30818;SDS011;17546;42.674;23.284;2023-03-22T10:34:30;5.60;;;3.92;;
30818;SDS011;17546;42.674;23.284;2023-03-22T10:36:57;6.22;;;3.72;;
30818;SDS011;17546;42.674;23.284;2023-03-22T10:39:29;4.85;;;3.28;;
30818;SDS011;17546;42.674;23.284;2023-03-22T10:41:58;4.07;;;3.05;;
30818;SDS011;17546;42.674;23.284;2023-03-22T10:44:27;5.60;;;3.72;;
30818;SDS011;17546;42.674;23.284;2023-03-22T10:46:58;20.58;;;6.70;;
30818;SDS011;17546;42.674;23.284;2023-03-22T10:49:32;19.63;;;7.32;;
30818;SDS011;17546;42.674;23.284;2023-03-22T10:52:02;25.88;;;8.38;;
30818;SDS011;17546;42.674;23.284;2023-03-22T10:54:35;24.70;;;8.35;;
30818;SDS011;17546;42.674;23.284;2023-03-22T10:57:00;22.10;;;8.88;;
30818;SDS011;17546;42.674;23.284;2023-03-22T10:59:43;30.70;;;10.75;;
30818;SDS011;17546;42.674;23.284;2023-03-22T11:02:19;27.67;;;10.45;;
30818;SDS011;17546;42.674;23.284;2023-03-22T11:04:46;31.13;;;11.20;;
30818;SDS011;17546;42.674;23.284;2023-03-22T11:12:36;22.52;;;10.32;;
30818;SDS011;17546;42.674;23.284;2023-03-22T11:15:05;21.60;;;11.27;;
30818;SDS011;17546;42.674;23.284;2023-03-22T11:17:31;26.33;;;11.23;;
30818;SDS011;17546;42.674;23.284;2023-03-22T11:20:01;20.13;;;9.88;;
30818;SDS011;17546;42.674;23.284;2023-03-22T11:22:38;22.85;;;12.25;;
30818;SDS011;17546;42.674;23.284;2023-03-22T11:25:16;23.85;;;13.00;;
30818;SDS011;17546;42.674;23.284;2023-03-22T11:27:53;24.35;;;13.57;;
30818;SDS011;17546;42.674;23.284;2023-03-22T11:35:28;25.33;;;12.55;;
30818;SDS011;17546;42.674;23.284;2023-03-22T11:37:55;23.10;;;12.50;;
30818;SDS011;17546;42.674;23.284;2023-03-22T11:43:15;22.35;;;10.63;;
30818;SDS011;17546;42.674;23.284;2023-03-22T11:45:47;16.92;;;9.40;;
30818;SDS011;17546;42.674;23.284;2023-03-22T11:48:16;13.23;;;8.85;;
30818;SDS011;17546;42.674;23.284;2023-03-22T11:50:45;15.82;;;8.30;;
30818;SDS011;17546;42.674;23.284;2023-03-22T11:53:15;12.02;;;7.53;;
30818;SDS011;17546;42.674;23.284;2023-03-22T11:55:43;13.32;;;7.20;;
30818;SDS011;17546;42.674;23.284;2023-03-22T11:58:23;14.98;;;8.15;;
30818;SDS011;17546;42.674;23.284;2023-03-22T12:00:54;12.50;;;7.50;;
30818;SDS011;17546;42.674;23.284;2023-03-22T12:03:27;14.13;;;7.50;;
30818;SDS011;17546;42.674;23.284;2023-03-22T12:05:55;12.45;;;7.15;;
30818;SDS011;17546;42.674;23.284;2023-03-22T12:11:10;17.30;;;7.30;;
30818;SDS011;17546;42.674;23.284;2023-03-22T12:13:47;11.55;;;6.80;;
30818;SDS011;17546;42.674;23.284;2023-03-22T12:16:16;8.95;;;4.97;;
30818;SDS011;17546;42.674;23.284;2023-03-22T12:18:53;10.73;;;5.75;;
30818;SDS011;17546;42.674;23.284;2023-03-22T12:21:30;10.00;;;5.47;;
30818;SDS011;17546;42.674;23.284;2023-03-22T12:23:57;11.13;;;6.47;;
30818;SDS011;17546;42.674;23.284;2023-03-22T12:26:26;12.57;;;7.45;;
30818;SDS011;17546;42.674;23.284;2023-03-22T12:31:26;12.95;;;6.72;;
30818;SDS011;17546;42.674;23.284;2023-03-22T12:36:34;13.70;;;6.53;;
30818;SDS011;17546;42.674;23.284;2023-03-22T12:39:06;11.45;;;6.50;;
30818;SDS011;17546;42.674;23.284;2023-03-22T12:41:42;10.98;;;6.45;;
30818;SDS011;17546;42.674;23.284;2023-03-22T12:44:17;12.93;;;6.78;;
30818;SDS011;17546;42.674;23.284;2023-03-22T12:46:47;9.43;;;6.40;;
30818;SDS011;17546;42.674;23.284;2023-03-22T12:51:51;10.00;;;6.20;;
30818;SDS011;17546;42.674;23.284;2023-03-22T12:54:23;13.20;;;6.35;;
30818;SDS011;17546;42.674;23.284;2023-03-22T12:56:49;14.73;;;6.85;;
30818;SDS011;17546;42.674;23.284;2023-03-22T12:59:22;6.97;;;3.70;;
30818;SDS011;17546;42.674;23.284;2023-03-22T13:02:04;4.57;;;2.80;;
30818;SDS011;17546;42.674;23.284;2023-03-22T13:09:41;5.15;;;3.00;;
30818;SDS011;17546;42.674;23.284;2023-03-22T13:20:01;7.03;;;2.75;;
30818;SDS011;17546;42.674;23.284;2023-03-22T13:27:52;6.82;;;2.92;;
30818;SDS011;17546;42.674;23.284;2023-03-22T13:32:57;4.22;;;3.33;;
30818;SDS011;17546;42.674;23.284;2023-03-22T13:38:09;6.60;;;4.10;;
30818;SDS011;17546;42.674;23.284;2023-03-22T13:40:55;8.73;;;4.20;;
30818;SDS011;17546;42.674;23.284;2023-03-22T13:43:32;6.80;;;4.40;;
30818;SDS011;17546;42.674;23.284;2023-03-22T13:48:53;12.70;;;5.80;;
30818;SDS011;17546;42.674;23.284;2023-03-22T13:51:36;7.97;;;4.90;;
30818;SDS011;17546;42.674;23.284;2023-03-22T14:10:12;9.30;;;5.88;;
30818;SDS011;17546;42.674;23.284;2023-03-22T14:15:53;10.02;;;6.15;;
30818;SDS011;17546;42.674;23.284;2023-03-22T14:18:32;12.25;;;6.78;;
30818;SDS011;17546;42.674;23.284;2023-03-22T14:21:04;13.88;;;6.78;;
30818;SDS011;17546;42.674;23.284;2023-03-22T14:23:36;13.82;;;8.02;;
30818;SDS011;17546;42.674;23.284;2023-03-22T14:26:07;16.65;;;9.07;;
30818;SDS011;17546;42.674;23.284;2023-03-22T14:28:37;19.05;;;8.25;;
30818;SDS011;17546;42.674;23.284;2023-03-22T14:31:11;13.20;;;8.30;;
30818;SDS011;17546;42.674;23.284;2023-03-22T14:33:44;13.77;;;8.20;;
30818;SDS011;17546;42.674;23.284;2023-03-22T14:36:12;14.77;;;8.52;;
30818;SDS011;17546;42.674;23.284;2023-03-22T14:38:40;17.48;;;8.63;;
30818;SDS011;17546;42.674;23.284;2023-03-22T14:43:44;13.13;;;7.82;;
30818;SDS011;17546;42.674;23.284;2023-03-22T14:46:13;12.25;;;7.78;;
30818;SDS011;17546;42.674;23.284;2023-03-22T14:48:46;16.02;;;8.52;;
30818;SDS011;17546;42.674;23.284;2023-03-22T14:51:23;9.85;;;6.95;;
30818;SDS011;17546;42.674;23.284;2023-03-22T14:53:51;14.18;;;8.38;;
30818;SDS011;17546;42.674;23.284;2023-03-22T14:56:18;15.77;;;8.85;;
30818;SDS011;17546;42.674;23.284;2023-03-22T14:58:53;12.55;;;8.60;;
30818;SDS011;17546;42.674;23.284;2023-03-22T15:01:51;14.47;;;8.80;;
30818;SDS011;17546;42.674;23.284;2023-03-22T15:04:43;15.95;;;8.70;;
30818;SDS011;17546;42.674;23.284;2023-03-22T15:07:09;14.55;;;8.55;;
30818;SDS011;17546;42.674;23.284;2023-03-22T15:09:35;12.93;;;8.40;;
30818;SDS011;17546;42.674;23.284;2023-03-22T15:12:01;20.92;;;10.20;;
30818;SDS011;17546;42.674;23.284;2023-03-22T15:14:29;14.68;;;9.23;;
30818;SDS011;17546;42.674;23.284;2023-03-22T15:17:00;16.38;;;9.73;;
30818;SDS011;17546;42.674;23.284;2023-03-22T15:19:32;16.40;;;9.32;;
30818;SDS011;17546;42.674;23.284;2023-03-22T15:22:02;19.40;;;10.02;;
30818;SDS011;17546;42.674;23.284;2023-03-22T15:24:32;15.10;;;9.55;;
30818;SDS011;17546;42.674;23.284;2023-03-22T15:27:10;20.98;;;9.65;;
30818;SDS011;17546;42.674;23.284;2023-03-22T15:29:41;20.95;;;10.68;;
30818;SDS011;17546;42.674;23.284;2023-03-22T15:32:17;20.52;;;9.43;;
30818;SDS011;17546;42.674;23.284;2023-03-22T15:34:45;20.42;;;11.27;;
30818;SDS011;17546;42.674;23.284;2023-03-22T15:37:46;16.95;;;10.18;;
30818;SDS011;17546;42.674;23.284;2023-03-22T15:40:04;16.67;;;9.68;;
30818;SDS011;17546;42.674;23.284;2023-03-22T15:42:50;17.00;;;9.80;;
30818;SDS011;17546;42.674;23.284;2023-03-22T15:45:21;14.20;;;8.93;;
30818;SDS011;17546;42.674;23.284;2023-03-22T15:47:51;13.20;;;8.55;;
30818;SDS011;17546;42.674;23.284;2023-03-22T15:50:21;13.43;;;8.23;;
30818;SDS011;17546;42.674;23.284;2023-03-22T15:52:49;17.38;;;9.05;;
30818;SDS011;17546;42.674;23.284;2023-03-22T15:55:16;16.38;;;8.80;;
30818;SDS011;17546;42.674;23.284;2023-03-22T15:57:50;18.23;;;8.80;;
30818;SDS011;17546;42.674;23.284;2023-03-22T16:05:38;22.80;;;9.23;;
30818;SDS011;17546;42.674;23.284;2023-03-22T16:08:05;26.85;;;9.43;;
30818;SDS011;17546;42.674;23.284;2023-03-22T16:10:33;28.15;;;9.73;;
30818;SDS011;17546;42.674;23.284;2023-03-22T16:13:00;16.75;;;9.05;;
30818;SDS011;17546;42.674;23.284;2023-03-22T16:15:26;22.70;;;10.20;;
30818;SDS011;17546;42.674;23.284;2023-03-22T16:17:55;19.27;;;8.85;;
30818;SDS011;17546;42.674;23.284;2023-03-22T16:20:21;19.42;;;11.00;;
30818;SDS011;17546;42.674;23.284;2023-03-22T16:22:47;19.98;;;10.43;;
30818;SDS011;17546;42.674;23.284;2023-03-22T16:25:18;24.13;;;9.27;;
30818;SDS011;17546;42.674;23.284;2023-03-22T16:27:45;35.13;;;11.10;;
30818;SDS011;17546;42.674;23.284;2023-03-22T16:30:12;55.13;;;11.85;;
30818;SDS011;17546;42.674;23.284;2023-03-22T16:32:40;38.88;;;11.63;;
30818;SDS011;17546;42.674;23.284;2023-03-22T16:35:08;20.63;;;11.18;;
30818;SDS011;17546;42.674;23.284;2023-03-22T16:37:55;23.10;;;10.75;;
30818;SDS011;17546;42.674;23.284;2023-03-22T16:40:21;23.60;;;10.35;;
30818;SDS011;17546;42.674;23.284;2023-03-22T16:42:50;17.13;;;10.57;;
30818;SDS011;17546;42.674;23.284;2023-03-22T16:47:55;28.38;;;12.05;;
30818;SDS011;17546;42.674;23.284;2023-03-22T16:50:22;36.60;;;12.52;;
30818;SDS011;17546;42.674;23.284;2023-03-22T16:52:49;21.70;;;11.15;;